.
WxDataArchive / Data Records for 2010-08-10
2010-08-09 August 2010 2010-08-11

Data Records for Tuesday, 10 August 2010

Time	Temp	Chill	HIndex	Humid	Dewpt	 Wind 	HiWind	WindDir	Rain 	Barom 
-----	----	-----	------	-----	-----	------	------	-------	-----	----- 
00:00	78.3	78.3	81.2	88	74.4	0	0	---	0.00	29.928 
00:05	78.1	78.1	80.7	88	74.2	0	0	---	0.00	29.928 
00:10	78.1	78.1	80.7	88	74.2	0	0	---	0.00	29.928 
00:15	77.9	77.9	80.2	88	74.0	0	0	---	0.00	29.926 
00:20	77.7	77.7	79.8	88	73.8	0	0	---	0.00	29.926 
00:25	77.6	77.6	79.6	89	74.1	0	0	---	0.00	29.926 
00:30	77.4	77.4	79.1	89	73.9	0	0	---	0.00	29.924 
00:35	77.4	77.4	79.1	89	73.9	0	0	---	0.00	29.924 
00:40	77.2	77.2	78.7	89	73.7	0	0	---	0.00	29.924 
00:45	77.0	77.0	78.2	89	73.5	0	0	---	0.00	29.931 
00:50	76.8	76.8	77.7	90	73.6	0	0	---	0.00	29.931 
00:55	76.8	76.8	77.7	90	73.6	0	0	---	0.00	29.931 
01:00	76.7	76.7	77.5	90	73.5	0	0	---	0.00	29.926 
01:05	76.5	76.5	77.0	91	73.7	0	0	---	0.00	29.926 
01:10	76.5	76.5	77.0	91	73.7	0	0	---	0.00	29.926 
01:15	76.3	76.3	76.6	91	73.5	0	0	---	0.00	29.919 
01:20	76.1	76.1	76.0	92	73.6	0	0	---	0.00	29.919 
01:25	76.0	76.0	75.8	92	73.5	0	0	---	0.00	29.919 
01:30	75.8	75.8	75.4	92	73.3	0	0	---	0.00	29.918 
01:35	75.6	75.6	75.0	92	73.1	0	0	---	0.00	29.918 
01:40	75.6	75.6	75.0	92	73.1	0	0	---	0.00	29.918 
01:45	75.4	75.4	74.5	92	72.9	0	0	---	0.00	29.917 
01:50	75.3	75.3	74.3	92	72.8	0	0	---	0.00	29.917 
01:55	75.1	75.1	73.9	92	72.6	0	0	---	0.00	29.917 
02:00	75.1	75.1	73.8	93	72.9	0	0	---	0.00	29.917 
02:05	75.1	75.1	73.8	93	72.9	0	0	---	0.00	29.917 
02:10	75.1	75.1	73.8	93	72.9	0	0	---	0.00	29.917 
02:15	74.9	74.9	74.9	93	72.7	0	0	---	0.00	29.920 
02:20	74.9	74.9	74.9	93	72.7	0	0	---	0.00	29.920 
02:25	74.9	74.9	74.9	93	72.7	0	0	---	0.00	29.920 
02:30	74.9	74.9	74.9	93	72.7	0	0	---	0.00	29.918 
02:35	74.7	74.7	74.7	94	72.9	0	0	---	0.00	29.918 
02:40	74.7	74.7	74.7	94	72.9	0	0	---	0.00	29.918 
02:45	74.6	74.6	74.6	94	72.8	0	0	---	0.00	29.921 
02:50	74.6	74.6	74.6	94	72.8	0	0	---	0.00	29.921 
02:55	74.4	74.4	74.4	94	72.6	0	0	---	0.00	29.921 
03:00	74.4	74.4	74.4	94	72.6	0	0	---	0.00	29.923 
03:05	74.4	74.4	74.4	94	72.6	0	0	---	0.00	29.923 
03:10	74.2	74.2	74.2	94	72.4	0	0	---	0.00	29.923 
03:15	74.2	74.2	74.2	94	72.4	0	0	---	0.00	29.921 
03:20	74.0	74.0	74.0	94	72.2	0	0	---	0.00	29.921 
03:25	74.0	74.0	74.0	95	72.5	0	0	---	0.00	29.921 
03:30	73.9	73.9	73.9	95	72.4	0	0	---	0.00	29.923 
03:35	73.9	73.9	73.9	95	72.4	0	0	---	0.00	29.923 
03:40	73.9	73.9	73.9	95	72.4	0	0	---	0.00	29.923 
03:45	73.9	73.9	73.9	95	72.4	0	0	---	0.00	29.922 
03:50	73.7	73.7	73.7	95	72.2	0	0	---	0.00	29.922 
03:55	73.7	73.7	73.7	95	72.2	0	0	---	0.00	29.922 
04:00	73.7	73.7	73.7	95	72.2	0	0	---	0.00	29.922 
04:05	73.5	73.5	73.5	95	72.0	0	0	---	0.00	29.922 
04:10	73.5	73.5	73.5	95	72.0	0	0	---	0.00	29.922 
04:15	73.5	73.5	73.5	95	72.0	0	0	---	0.00	29.921 
04:20	73.3	73.3	73.3	95	71.8	0	0	---	0.00	29.921 
04:25	73.3	73.3	73.3	95	71.8	0	0	---	0.00	29.921 
04:30	73.3	73.3	73.3	95	71.8	0	0	---	0.00	29.922 
04:35	73.3	73.3	73.3	95	71.8	0	0	---	0.00	29.922 
04:40	73.5	73.5	73.5	95	72.0	0	0	---	0.00	29.922 
04:45	73.5	73.5	73.5	95	72.0	0	0	---	0.00	29.920 
04:50	73.5	73.5	73.5	95	72.0	0	0	---	0.00	29.920 
04:55	73.5	73.5	73.5	95	72.0	0	0	---	0.00	29.920 
05:00	73.5	73.5	73.5	96	72.3	0	0	---	0.00	29.918 
05:05	73.7	73.7	73.7	96	72.5	0	0	---	0.00	29.918 
05:10	73.7	73.7	73.7	96	72.5	0	0	---	0.00	29.918 
05:15	73.9	73.9	73.9	96	72.7	0	0	---	0.00	29.913 
05:20	73.7	73.7	73.7	96	72.5	0	0	---	0.00	29.913 
05:25	73.9	73.9	73.9	96	72.7	0	0	---	0.00	29.913 
05:30	73.9	73.9	73.9	96	72.7	0	0	---	0.00	29.917 
05:35	74.0	74.0	74.0	96	72.8	0	0	---	0.00	29.917 
05:40	74.0	74.0	74.0	96	72.8	0	0	---	0.00	29.917 
05:45	74.0	74.0	74.0	96	72.8	0	0	---	0.00	29.918 
05:50	74.0	74.0	74.0	96	72.8	0	0	---	0.00	29.918 
05:55	73.9	73.9	73.9	96	72.7	0	0	---	0.00	29.918 
06:00	73.9	73.9	73.9	96	72.7	0	0	---	0.00	29.920 
06:05	73.9	73.9	73.9	96	72.7	0	0	---	0.00	29.920 
06:10	74.0	74.0	74.0	96	72.8	0	0	---	0.00	29.920 
06:15	74.0	74.0	74.0	96	72.8	0	0	---	0.00	29.928 
06:20	74.0	74.0	74.0	96	72.8	0	0	---	0.00	29.928 
06:25	74.0	74.0	74.0	96	72.8	0	0	---	0.00	29.928 
06:30	74.0	74.0	74.0	96	72.8	0	0	---	0.00	29.933 
06:35	74.0	74.0	74.0	96	72.8	0	0	---	0.00	29.933 
06:40	74.0	74.0	74.0	96	72.8	0	0	---	0.00	29.933 
06:45	73.9	73.9	73.9	96	72.7	0	0	---	0.00	29.936 
06:50	73.9	73.9	73.9	96	72.7	0	0	---	0.00	29.936 
06:55	73.9	73.9	73.9	96	72.7	0	0	---	0.00	29.936 
07:00	73.9	73.9	73.9	96	72.7	0	0	---	0.00	29.938 
07:05	73.9	73.9	73.9	96	72.7	0	0	---	0.00	29.938 
07:10	74.0	74.0	74.0	96	72.8	0	0	---	0.00	29.938 
07:15	74.0	74.0	74.0	96	72.8	0	0	---	0.00	29.938 
07:20	74.2	74.2	74.2	96	73.0	0	0	---	0.00	29.938 
07:25	74.2	74.2	74.2	96	73.0	0	0	---	0.00	29.938 
07:30	74.4	74.4	74.4	96	73.2	0	0	---	0.00	29.945 
07:35	74.6	74.6	74.6	96	73.4	0	0	---	0.00	29.945 
07:40	74.7	74.7	74.7	96	73.5	0	0	---	0.00	29.945 
07:45	74.9	74.9	74.9	96	73.7	0	0	---	0.00	29.949 
07:50	75.3	75.3	73.7	96	74.1	0	0	---	0.00	29.949 
07:55	75.4	75.4	73.9	96	74.2	0	1	270	0.00	29.949 
08:00	75.8	75.8	74.8	96	74.6	0	0	---	0.00	29.950 
08:05	75.8	75.8	74.8	96	74.6	0	1	270	0.00	29.950 
08:10	76.0	76.0	75.3	96	74.8	0	0	---	0.00	29.950 
08:15	76.1	76.1	75.6	96	74.9	0	1	270	0.00	29.954 
08:20	76.3	76.3	76.1	96	75.1	0	0	---	0.00	29.954 
08:25	76.5	76.5	76.6	96	75.3	0	1	270	0.00	29.954 
08:30	76.5	76.5	76.7	95	75.0	0	1	270	0.00	29.953 
08:35	76.7	76.7	77.2	95	75.2	0	0	---	0.00	29.953 
08:40	76.8	76.8	77.4	95	75.3	0	1	270	0.00	29.953 
08:45	77.0	77.0	78.0	94	75.1	0	1	270	0.00	29.953 
08:50	77.2	77.2	78.5	93	75.0	1	4	270	0.00	29.953 
08:55	77.4	77.4	79.0	92	74.9	0	2	248	0.00	29.953 
09:00	77.2	77.2	78.6	91	74.4	1	2	248	0.00	29.958 
09:05	77.6	77.6	79.5	91	74.8	0	1	248	0.00	29.958 
09:10	77.9	77.9	80.2	89	74.4	0	1	248	0.00	29.958 
09:15	78.5	78.5	81.6	88	74.6	0	1	248	0.00	29.955 
09:20	78.8	78.8	82.3	87	74.6	0	1	248	0.00	29.955 
09:25	79.0	79.0	82.6	85	74.1	0	2	248	0.00	29.955 
09:30	79.2	79.2	82.9	84	73.9	1	2	248	0.00	29.959 
09:35	79.8	79.8	84.2	83	74.2	0	1	248	0.00	29.959 
09:40	80.3	80.3	84.9	80	73.5	0	0	---	0.00	29.959 
09:45	80.7	80.7	85.2	77	72.8	0	1	248	0.00	29.962 
09:50	81.1	81.1	86.1	77	73.2	0	1	248	0.00	29.962 
09:55	81.6	81.6	86.9	76	73.3	0	1	248	0.00	29.962 
10:00	81.8	81.8	86.7	73	72.3	0	1	248	0.00	29.965 
10:05	82.4	82.4	87.9	73	72.9	0	1	248	0.00	29.965 
10:10	82.6	82.6	86.9	67	70.5	1	4	68	0.00	29.965 
10:15	83.2	83.2	88.2	68	71.5	1	3	68	0.00	29.967 
10:20	83.2	83.2	88.5	69	71.9	0	0	---	0.00	29.967 
10:25	83.4	83.4	88.4	67	71.3	0	0	---	0.00	29.967 
10:30	83.2	83.2	88.2	68	71.5	0	2	68	0.00	29.968 
10:35	83.0	83.0	88.1	69	71.8	1	5	90	0.00	29.968 
10:40	82.8	82.8	88.0	70	72.0	1	3	90	0.00	29.968 
10:45	83.2	83.2	88.2	68	71.5	1	3	90	0.00	29.962 
10:50	83.6	83.6	89.0	68	71.9	2	5	90	0.00	29.962 
10:55	83.2	83.2	88.5	69	71.9	2	5	90	0.00	29.962 
11:00	83.0	83.0	88.4	70	72.2	1	4	90	0.00	29.953 
11:05	83.0	83.0	88.7	71	72.6	1	4	90	0.00	29.953 
11:10	83.2	83.2	88.8	70	72.4	1	2	90	0.00	29.953 
11:15	83.4	83.4	89.5	71	73.0	0	2	90	0.00	29.962 
11:20	83.6	83.6	89.6	70	72.8	0	2	90	0.00	29.962 
11:25	83.8	83.8	89.7	69	72.5	0	2	90	0.00	29.962 
11:30	83.8	83.8	89.7	69	72.5	0	0	---	0.00	29.962 
11:35	83.8	83.8	90.0	70	72.9	0	2	90	0.00	29.962 
11:40	84.1	84.1	90.4	69	72.8	0	2	90	0.00	29.962 
11:45	84.7	84.7	91.7	69	73.4	0	2	90	0.00	29.966 
11:50	85.5	85.5	92.7	67	73.3	0	2	90	0.00	29.966 
11:55	86.3	86.3	93.2	64	72.7	0	1	90	0.00	29.966 
12:00	87.2	87.2	95.2	64	73.5	0	2	112	0.00	29.964 
12:05	87.6	87.6	96.6	65	74.3	0	2	112	0.00	29.964 
12:10	87.2	87.2	95.7	65	74.0	1	4	112	0.00	29.964 
12:15	87.0	87.0	95.2	65	73.8	1	4	90	0.00	29.965 
12:20	86.5	86.5	94.1	65	73.3	2	4	112	0.00	29.965 
12:25	86.5	86.5	94.1	65	73.3	1	3	112	0.00	29.965 
12:30	86.7	86.7	94.5	65	73.5	0	1	112	0.00	29.963 
12:35	87.2	87.2	94.8	63	73.0	0	1	112	0.00	29.963 
12:40	87.2	87.2	94.8	63	73.0	0	3	112	0.00	29.963 
12:45	87.0	87.0	95.2	65	73.8	1	3	112	0.00	29.964 
12:50	86.7	86.7	94.5	65	73.5	0	2	112	0.00	29.964 
12:55	87.0	87.0	95.2	65	73.8	0	3	112	0.00	29.964 
13:00	87.2	87.2	95.7	65	74.0	1	3	112	0.00	29.962 
13:05	87.4	87.4	95.7	64	73.7	0	2	112	0.00	29.962 
13:10	87.6	87.6	96.1	64	73.9	0	2	112	0.00	29.962 
13:15	87.6	87.6	96.1	64	73.9	2	4	112	0.00	29.964 
13:20	87.4	87.4	95.7	64	73.7	1	4	112	0.00	29.964 
13:25	87.4	87.4	95.7	64	73.7	0	2	112	0.00	29.964 
13:30	87.6	87.6	97.1	66	74.8	0	3	112	0.00	29.958 
13:35	88.0	88.0	97.1	64	74.3	1	4	90	0.00	29.958 
13:40	88.0	88.0	96.6	63	73.8	1	4	90	0.00	29.958 
13:45	87.8	87.8	95.6	62	73.1	0	2	90	0.00	29.957 
13:50	87.4	87.4	95.7	64	73.7	0	1	112	0.00	29.957 
13:55	87.2	87.2	95.7	65	74.0	2	7	112	0.00	29.957 
14:00	86.7	86.7	95.0	66	73.9	2	3	112	0.00	29.951 
14:05	86.7	86.7	94.5	65	73.5	1	2	112	0.00	29.951 
14:10	87.2	87.2	96.1	66	74.4	0	2	112	0.00	29.951 
14:15	87.2	87.2	95.7	65	74.0	1	3	112	0.00	29.948 
14:20	87.0	87.0	95.2	65	73.8	1	5	90	0.00	29.948 
14:25	86.7	86.7	94.5	65	73.5	1	3	90	0.00	29.948 
14:30	86.5	86.5	94.1	65	73.3	1	4	90	0.00	29.945 
14:35	86.5	86.5	94.1	65	73.3	0	2	90	0.00	29.945 
14:40	86.7	86.7	94.1	64	73.0	0	2	90	0.00	29.945 
14:45	87.2	87.2	94.8	63	73.0	0	3	90	0.00	29.936 
14:50	88.0	88.0	97.1	64	74.3	1	3	112	0.00	29.936 
14:55	88.4	88.4	96.5	61	73.2	1	4	112	0.00	29.936 
15:00	89.0	89.0	96.4	58	72.3	2	7	90	0.00	29.933 
15:05	89.3	89.3	97.0	58	72.5	0	3	90	0.00	29.933 
15:10	89.5	89.5	98.5	60	73.7	1	5	90	0.00	29.933 
15:15	89.3	89.3	98.0	60	73.6	0	2	90	0.00	29.926 
15:20	89.0	89.0	97.9	61	73.8	1	3	90	0.00	29.926 
15:25	89.0	89.0	97.4	60	73.3	0	1	90	0.00	29.926 
15:30	89.7	89.7	98.4	59	73.4	1	3	90	0.00	29.919 
15:35	90.1	90.1	100.5	61	74.8	2	5	90	0.00	29.919 
15:40	90.1	90.1	99.4	59	73.8	1	4	90	0.00	29.919 
15:45	90.1	90.1	98.3	57	72.8	2	5	90	0.00	29.920 
15:50	90.1	90.1	98.8	58	73.3	1	3	90	0.00	29.920 
15:55	89.5	89.5	97.4	58	72.7	1	2	90	0.00	29.920 
16:00	88.8	88.8	95.9	58	72.1	1	3	90	0.00	29.920 
16:05	88.4	88.4	95.5	59	72.2	0	2	90	0.00	29.920 
16:10	88.2	88.2	95.1	59	72.0	0	1	90	0.00	29.920 
16:15	88.6	88.6	95.5	58	71.9	0	2	0	0.00	29.919 
16:20	88.8	88.8	95.9	58	72.1	0	2	45	0.00	29.919 
16:25	88.8	88.8	96.4	59	72.6	0	1	45	0.00	29.919 
16:30	88.8	88.8	96.9	60	73.1	1	2	45	0.00	29.909 
16:35	89.0	89.0	96.4	58	72.3	0	3	45	0.00	29.909 
16:40	89.5	89.5	98.0	59	73.2	2	5	90	0.00	29.909 
16:45	89.3	89.3	97.5	59	73.1	1	4	90	0.00	29.904 
16:50	88.8	88.8	96.4	59	72.6	1	4	90	0.00	29.904 
16:55	88.6	88.6	96.5	60	72.9	0	4	90	0.00	29.904 
17:00	88.2	88.2	96.1	61	73.0	1	3	90	0.00	29.901 
17:05	88.2	88.2	95.6	60	72.5	1	3	90	0.00	29.901 
17:10	88.2	88.2	96.5	62	73.5	0	1	90	0.00	29.901 
17:15	88.4	88.4	96.0	60	72.7	0	1	112	0.00	29.899 
17:20	88.6	88.6	96.5	60	72.9	0	3	90	0.00	29.899 
17:25	88.6	88.6	96.0	59	72.4	0	2	90	0.00	29.899 
17:30	88.6	88.6	97.5	62	73.9	1	2	135	0.00	29.902 
17:35	88.8	88.8	96.9	60	73.1	0	4	90	0.00	29.902 
17:40	89.0	89.0	96.8	59	72.8	0	2	90	0.00	29.902 
17:45	89.0	89.0	96.8	59	72.8	0	3	90	0.00	29.893 
17:50	88.8	88.8	96.4	59	72.6	0	2	90	0.00	29.893 
17:55	88.6	88.6	95.5	58	71.9	1	5	90	0.00	29.893 
18:00	88.4	88.4	95.1	58	71.7	0	3	90	0.00	29.894 
18:05	88.4	88.4	95.5	59	72.2	0	0	---	0.00	29.894 
18:10	88.4	88.4	94.6	57	71.2	0	3	90	0.00	29.894 
18:15	88.4	88.4	95.1	58	71.7	0	0	---	0.00	29.890 
18:20	88.4	88.4	94.6	57	71.2	1	3	90	0.00	29.890 
18:25	88.2	88.2	94.7	58	71.5	1	2	90	0.00	29.890 
18:30	88.2	88.2	93.8	56	70.5	1	2	90	0.00	29.887 
18:35	88.2	88.2	94.7	58	71.5	0	0	---	0.00	29.887 
18:40	88.2	88.2	94.7	58	71.5	0	1	90	0.00	29.887 
18:45	88.2	88.2	94.7	58	71.5	0	1	90	0.00	29.886 
18:50	88.2	88.2	94.2	57	71.0	0	2	90	0.00	29.886 
18:55	88.2	88.2	94.2	57	71.0	0	1	90	0.00	29.886 
19:00	88.0	88.0	93.8	57	70.8	0	1	90	0.00	29.891 
19:05	87.8	87.8	92.6	55	69.6	0	0	---	0.00	29.891 
19:10	87.8	87.8	93.0	56	70.1	0	0	---	0.00	29.891 
19:15	87.6	87.6	92.6	56	69.9	0	0	---	0.00	29.888 
19:20	87.6	87.6	93.4	58	71.0	0	0	---	0.00	29.888 
19:25	87.4	87.4	93.0	58	70.8	0	0	---	0.00	29.888 
19:30	87.4	87.4	93.0	58	70.8	0	0	---	0.00	29.891 
19:35	87.2	87.2	92.7	58	70.6	0	0	---	0.00	29.891 
19:40	87.0	87.0	92.7	59	70.9	0	0	---	0.00	29.891 
19:45	87.0	87.0	92.3	58	70.4	0	0	---	0.00	29.893 
19:50	87.0	87.0	92.3	58	70.4	0	0	---	0.00	29.893 
19:55	87.0	87.0	92.7	59	70.9	0	0	---	0.00	29.893 
20:00	87.0	87.0	92.7	59	70.9	0	0	---	0.00	29.896 
20:05	86.7	86.7	92.5	60	71.1	0	0	---	0.00	29.896 
20:10	86.7	86.7	93.3	62	72.1	0	0	---	0.00	29.896 
20:15	86.5	86.5	93.3	63	72.4	0	0	---	0.00	29.898 
20:20	86.3	86.3	92.8	63	72.2	0	0	---	0.00	29.898 
20:25	86.1	86.1	92.8	64	72.5	0	0	---	0.00	29.898 
20:30	85.7	85.7	92.0	64	72.1	0	0	---	0.00	29.903 
20:35	85.3	85.3	91.2	64	71.7	0	0	---	0.00	29.903 
20:40	85.1	85.1	91.5	66	72.4	0	0	---	0.00	29.903 
20:45	84.9	84.9	91.4	67	72.7	0	3	90	0.00	29.913 
20:50	84.7	84.7	91.7	69	73.4	0	1	90	0.00	29.913 
20:55	84.5	84.5	91.2	69	73.2	0	1	90	0.00	29.913 
21:00	84.3	84.3	91.1	70	73.4	0	1	90	0.00	29.909 
21:05	84.1	84.1	91.0	71	73.7	0	0	---	0.00	29.909 
21:10	84.0	84.0	90.8	71	73.6	0	0	---	0.00	29.909 
21:15	83.6	83.6	90.2	72	73.6	0	0	---	0.00	29.906 
21:20	83.4	83.4	89.8	72	73.4	0	0	---	0.00	29.906 
21:25	83.2	83.2	89.7	73	73.6	0	2	90	0.00	29.906 
21:30	83.0	83.0	89.2	73	73.4	0	2	90	0.00	29.907 
21:35	82.8	82.8	88.8	73	73.2	0	2	90	0.00	29.907 
21:40	82.6	82.6	88.4	73	73.0	0	2	90	0.00	29.907 
21:45	82.4	82.4	87.9	73	72.9	0	1	90	0.00	29.913 
21:50	82.2	82.2	87.5	73	72.7	0	1	90	0.00	29.913 
21:55	82.0	82.0	87.1	73	72.5	0	3	90	0.00	29.913 
22:00	81.8	81.8	86.7	73	72.3	0	1	90	0.00	29.926 
22:05	81.6	81.6	86.3	73	72.1	0	0	---	0.00	29.926 
22:10	81.4	81.4	85.9	73	71.9	0	1	90	0.00	29.926 
22:15	81.2	81.2	85.5	73	71.7	0	2	90	0.00	29.930 
22:20	81.1	81.1	85.3	73	71.6	0	2	90	0.00	29.930 
22:25	80.9	80.9	85.1	74	71.8	0	0	---	0.00	29.930 
22:30	80.7	80.7	84.7	74	71.6	0	0	---	0.00	29.934 
22:35	80.5	80.5	84.5	75	71.8	0	1	90	0.00	29.934 
22:40	80.3	80.3	84.1	75	71.6	0	0	---	0.00	29.934 
22:45	80.1	80.1	83.8	75	71.4	0	0	---	0.00	29.935 
22:50	79.9	79.9	83.4	75	71.2	0	1	90	0.00	29.935 
22:55	79.9	79.9	83.4	75	71.2	0	0	---	0.00	29.935 
23:00	79.8	79.8	83.3	76	71.5	0	0	---	0.00	29.931 
23:05	79.8	79.8	83.3	76	71.5	0	0	---	0.00	29.931 
23:10	79.6	79.6	83.0	76	71.3	0	0	---	0.00	29.931 
23:15	79.6	79.6	83.0	76	71.3	0	0	---	0.00	29.930 
23:20	79.6	79.6	83.1	77	71.7	0	0	---	0.00	29.930 
23:25	79.6	79.6	83.0	76	71.3	0	0	---	0.00	29.930 
23:30	79.6	79.6	83.0	76	71.3	0	0	---	0.00	29.929 
23:35	79.6	79.6	82.8	75	71.0	0	0	---	0.00	29.929 
23:40	79.6	79.6	82.8	75	71.0	0	1	90	0.00	29.929 
23:45	79.6	79.6	82.8	75	71.0	0	1	90	0.00	29.926 
23:50	79.6	79.6	82.7	74	70.6	0	1	90	0.00	29.926 
23:55	79.6	79.6	82.7	74	70.6	0	2	90	0.00	29.926 

CoCoRaHS
IN-AL-39
A2 Web Hosting
Creative Commons License
GoDaddy
search engine by freefind advanced

loaded 2018-11-17 23:04:47 • last modified 2010-11-18 10:43:29
Privacy PolicyDisclaimer
• wx.awcolley.com is powered by PmWiki v.2002016 •
• all content (unless otherwise noted) © 2018 A W Colley